createdAt,value
2019-03-05T00:01:24.798Z,99.90
2019-03-05T00:03:53.782Z,99.90
2019-03-05T00:06:23.332Z,99.90
2019-03-05T00:08:52.286Z,99.90
2019-03-05T00:11:21.268Z,99.90
2019-03-05T00:13:50.225Z,99.90
2019-03-05T00:16:19.278Z,99.90
2019-03-05T00:18:48.243Z,99.90
2019-03-05T00:21:17.595Z,99.90
2019-03-05T00:23:50.990Z,99.90
2019-03-05T00:26:31.194Z,99.40
2019-03-05T00:29:12.027Z,99.80
2019-03-05T00:31:46.602Z,99.90
2019-03-05T00:34:24.724Z,99.50
2019-03-05T00:36:56.773Z,99.40
2019-03-05T00:39:40.818Z,99.00
2019-03-05T00:42:46.093Z,99.20
2019-03-05T00:45:27.438Z,99.10
2019-03-05T00:48:11.440Z,98.90
2019-03-05T00:51:00.174Z,98.80
2019-03-05T00:53:48.925Z,98.90
2019-03-05T00:56:20.960Z,98.70
2019-03-05T00:58:53.011Z,99.00
2019-03-05T01:01:25.054Z,98.90
2019-03-05T01:04:18.159Z,99.00
2019-03-05T01:06:47.136Z,98.90
2019-03-05T01:09:17.393Z,98.90
2019-03-05T01:11:47.435Z,98.90
2019-03-05T01:14:16.818Z,97.90
2019-03-05T01:16:46.538Z,98.80
2019-03-05T01:19:15.565Z,98.20
2019-03-05T01:21:44.616Z,98.10
2019-03-05T01:24:13.923Z,98.30
2019-03-05T01:26:42.898Z,98.40
2019-03-05T01:29:11.928Z,98.80
2019-03-05T01:31:42.771Z,99.30
2019-03-05T01:34:13.382Z,99.40
2019-03-05T01:36:43.998Z,99.50
2019-03-05T01:39:32.322Z,99.70
2019-03-05T01:42:01.435Z,99.90
2019-03-05T01:44:30.393Z,99.80
2019-03-05T01:46:59.368Z,99.90
2019-03-05T01:49:28.334Z,99.90
2019-03-05T01:51:57.302Z,99.90
2019-03-05T01:54:26.263Z,99.90
2019-03-05T01:56:55.247Z,99.90
2019-03-05T01:59:24.198Z,99.70
2019-03-05T02:01:53.239Z,99.90
2019-03-05T02:04:22.187Z,99.90
2019-03-05T02:06:51.300Z,99.90
2019-03-05T02:09:20.342Z,99.90
2019-03-05T02:11:49.383Z,99.80
2019-03-05T02:14:18.407Z,99.60
2019-03-05T02:16:47.386Z,99.70
2019-03-05T02:19:42.279Z,99.70
2019-03-05T02:22:16.888Z,99.50
2019-03-05T02:25:08.418Z,99.60
2019-03-05T02:28:01.826Z,99.70
2019-03-05T02:31:01.190Z,99.50
2019-03-05T02:33:41.681Z,99.50
2019-03-05T02:36:25.791Z,99.50
2019-03-05T02:39:31.127Z,99.50
2019-03-05T02:42:31.744Z,99.60
2019-03-05T02:45:16.212Z,99.70
2019-03-05T02:47:51.046Z,99.60
2019-03-05T02:50:23.139Z,99.50
2019-03-05T02:53:00.326Z,99.80
2019-03-05T02:55:31.610Z,99.80
2019-03-05T02:57:59.595Z,99.50
2019-03-05T03:00:33.180Z,99.70
2019-03-05T03:03:18.569Z,99.70
2019-03-05T03:05:49.206Z,99.80
2019-03-05T03:08:18.174Z,99.80
2019-03-05T03:10:47.143Z,99.70
2019-03-05T03:13:16.103Z,99.60
2019-03-05T03:15:45.084Z,99.50
2019-03-05T03:18:14.054Z,99.50
2019-03-05T03:20:43.043Z,99.50
2019-03-05T03:23:12.004Z,99.00
2019-03-05T03:25:41.058Z,99.20
2019-03-05T03:28:10.102Z,99.10
2019-03-05T03:30:39.061Z,99.40
2019-03-05T03:33:08.016Z,99.10
2019-03-05T03:35:36.979Z,99.10
2019-03-05T03:38:05.971Z,98.70
2019-03-05T03:40:34.970Z,99.10
2019-03-05T03:43:04.057Z,98.90
2019-03-05T03:45:33.097Z,98.60
2019-03-05T03:48:02.190Z,98.70
2019-03-05T03:50:31.171Z,98.60
2019-03-05T03:53:00.151Z,98.60
2019-03-05T03:55:29.265Z,98.20
2019-03-05T03:57:58.377Z,98.20
2019-03-05T04:00:27.500Z,98.20
2019-03-05T04:02:56.455Z,98.20
2019-03-05T04:05:25.442Z,98.00
2019-03-05T04:07:54.535Z,98.40
2019-03-05T04:10:23.533Z,98.40
2019-03-05T04:12:52.553Z,98.10
2019-03-05T04:15:21.627Z,98.00
2019-03-05T04:17:50.659Z,98.10
2019-03-05T04:20:24.528Z,98.30
2019-03-05T04:22:53.483Z,98.00
2019-03-05T04:25:22.458Z,98.10
2019-03-05T04:27:51.411Z,98.50
2019-03-05T04:30:20.379Z,98.30
2019-03-05T04:32:49.367Z,98.00
2019-03-05T04:35:18.330Z,98.40
2019-03-05T04:37:47.299Z,98.40
2019-03-05T04:40:16.275Z,98.20
2019-03-05T04:42:45.231Z,98.30
2019-03-05T04:45:33.311Z,98.30
2019-03-05T04:48:02.282Z,98.10
2019-03-05T04:50:32.883Z,98.30
2019-03-05T04:53:01.846Z,98.10
2019-03-05T04:55:30.831Z,98.40
2019-03-05T04:57:59.897Z,98.20
2019-03-05T05:00:28.936Z,98.20
2019-03-05T05:02:58.491Z,98.20
2019-03-05T05:05:27.562Z,98.10
2019-03-05T05:07:56.535Z,98.30
2019-03-05T05:10:25.563Z,97.80
2019-03-05T05:12:54.611Z,97.10
2019-03-05T05:15:32.226Z,97.10
2019-03-05T05:18:01.744Z,96.80
2019-03-05T05:20:30.831Z,96.90
2019-03-05T05:22:59.806Z,97.00
2019-03-05T05:25:28.772Z,96.30
2019-03-05T05:27:57.808Z,96.20
2019-03-05T05:30:32.159Z,96.40
2019-03-05T05:33:01.265Z,96.50
2019-03-05T05:35:30.291Z,96.20
2019-03-05T05:37:59.338Z,96.50
2019-03-05T05:40:39.990Z,97.00
2019-03-05T05:43:11.998Z,97.10
2019-03-05T05:45:44.032Z,96.90
2019-03-05T05:48:13.087Z,96.80
2019-03-05T05:50:42.193Z,97.30
2019-03-05T05:53:11.171Z,97.00
2019-03-05T05:55:40.462Z,97.10
2019-03-05T05:58:09.456Z,97.10
2019-03-05T06:00:43.171Z,96.90
2019-03-05T06:03:12.276Z,96.60
2019-03-05T06:05:41.302Z,96.80
2019-03-05T06:08:10.274Z,96.90
2019-03-05T06:10:39.247Z,96.80
2019-03-05T06:13:08.302Z,96.70
2019-03-05T06:15:37.263Z,96.70
2019-03-05T06:18:06.230Z,96.80
2019-03-05T06:20:35.212Z,96.90
2019-03-05T06:23:04.168Z,96.80
2019-03-05T06:25:33.143Z,96.80
2019-03-05T06:28:02.163Z,96.60
2019-03-05T06:30:42.130Z,96.50
2019-03-05T06:33:11.087Z,96.60
2019-03-05T06:35:40.046Z,96.60
2019-03-05T06:38:09.133Z,96.20
2019-03-05T06:40:38.116Z,96.20
2019-03-05T06:43:07.080Z,96.00
2019-03-05T06:45:36.140Z,96.10
2019-03-05T06:48:05.115Z,96.00
2019-03-05T06:50:34.078Z,95.60
2019-03-05T06:53:03.053Z,95.80
2019-03-05T06:55:32.046Z,95.90
2019-03-05T06:58:01.014Z,95.90
2019-03-05T07:00:34.190Z,96.00
2019-03-05T07:03:04.339Z,95.60
2019-03-05T07:06:09.494Z,95.70
2019-03-05T07:08:41.474Z,95.20
2019-03-05T07:11:33.074Z,94.80
2019-03-05T07:14:05.111Z,94.90
2019-03-05T07:16:37.155Z,94.80
2019-03-05T07:19:06.778Z,95.10
2019-03-05T07:21:59.456Z,95.00
2019-03-05T07:24:48.805Z,94.80
2019-03-05T07:27:20.676Z,94.80
2019-03-05T07:29:49.654Z,94.60
2019-03-05T07:32:18.640Z,94.80
2019-03-05T07:34:49.241Z,95.10
2019-03-05T07:37:18.218Z,94.60
2019-03-05T07:39:47.200Z,94.50
2019-03-05T07:42:16.159Z,94.80
2019-03-05T07:44:45.158Z,94.70
2019-03-05T07:47:14.159Z,94.40
2019-03-05T07:49:44.290Z,94.30
2019-03-05T07:52:13.386Z,94.40
2019-03-05T07:54:42.389Z,94.40
2019-03-05T07:57:11.346Z,94.80
2019-03-05T07:59:40.336Z,94.50
2019-03-05T08:02:09.375Z,94.70
2019-03-05T08:04:38.346Z,94.20
2019-03-05T08:07:07.390Z,94.80
2019-03-05T08:09:38.008Z,94.50
2019-03-05T08:12:25.067Z,94.00
2019-03-05T08:15:18.579Z,93.90
2019-03-05T08:17:47.559Z,94.00
2019-03-05T08:20:16.524Z,93.70
2019-03-05T08:22:45.489Z,94.20
2019-03-05T08:25:15.043Z,93.70
2019-03-05T08:27:44.071Z,94.40
2019-03-05T08:30:15.993Z,94.00
2019-03-05T08:32:45.017Z,94.10
2019-03-05T08:35:13.997Z,93.80
2019-03-05T08:37:42.956Z,94.70
2019-03-05T08:40:13.800Z,95.60
2019-03-05T08:42:42.830Z,96.10
2019-03-05T08:45:15.755Z,96.30
2019-03-05T08:47:44.796Z,96.10
2019-03-05T08:50:15.483Z,96.10
2019-03-05T08:52:44.516Z,96.00
2019-03-05T08:55:13.562Z,95.70
2019-03-05T08:57:42.533Z,95.70
2019-03-05T09:00:20.141Z,95.50
2019-03-05T09:02:49.509Z,96.00
2019-03-05T09:05:19.730Z,95.80
2019-03-05T09:07:49.162Z,95.40
2019-03-05T09:10:24.102Z,94.90
2019-03-05T09:12:53.062Z,94.90
2019-03-05T09:15:22.120Z,95.00
2019-03-05T09:17:51.110Z,94.70
2019-03-05T09:20:20.551Z,94.60
2019-03-05T09:22:49.534Z,95.00
2019-03-05T09:25:19.242Z,95.70
2019-03-05T09:27:48.276Z,96.10
2019-03-05T09:30:21.180Z,95.80
2019-03-05T09:32:50.307Z,96.30
2019-03-05T09:35:19.527Z,96.20
2019-03-05T09:37:48.478Z,96.00
2019-03-05T09:40:33.406Z,96.00
2019-03-05T09:43:02.451Z,96.90
2019-03-05T09:45:31.496Z,96.50
2019-03-05T09:48:00.620Z,96.70
2019-03-05T09:50:31.972Z,96.80
2019-03-05T09:53:00.732Z,96.60
2019-03-05T09:55:31.417Z,96.70
2019-03-05T09:58:07.967Z,96.50
2019-03-05T10:00:31.684Z,96.40
2019-03-05T10:03:00.640Z,96.50
2019-03-05T10:05:29.687Z,96.90
2019-03-05T10:07:58.659Z,96.90
2019-03-05T10:10:31.663Z,97.20
2019-03-05T10:13:04.340Z,97.40
2019-03-05T10:15:43.983Z,97.10
2019-03-05T10:18:13.325Z,97.60
2019-03-05T10:20:42.486Z,98.00
2019-03-05T10:23:11.639Z,98.80
2019-03-05T10:25:40.616Z,99.70
2019-03-05T10:28:09.645Z,99.90
2019-03-05T10:30:40.793Z,99.90
2019-03-05T10:33:11.535Z,99.90
2019-03-05T10:35:40.975Z,99.90
2019-03-05T10:38:11.055Z,99.90
2019-03-05T10:40:48.693Z,99.90
2019-03-05T10:43:18.038Z,99.90
2019-03-05T10:45:47.862Z,99.90
2019-03-05T10:48:21.891Z,99.90
2019-03-05T10:50:51.236Z,99.90
2019-03-05T10:53:20.803Z,99.90
2019-03-05T10:55:49.850Z,99.90
2019-03-05T10:58:19.477Z,99.90
2019-03-05T11:00:56.189Z,99.90
2019-03-05T11:03:29.755Z,99.90
2019-03-05T11:05:58.882Z,99.90
2019-03-05T11:08:27.974Z,99.90
2019-03-05T11:10:57.687Z,99.90
2019-03-05T11:13:26.727Z,99.90
2019-03-05T11:16:00.949Z,99.90
2019-03-05T11:18:30.217Z,99.90
2019-03-05T11:20:59.549Z,99.90
2019-03-05T11:23:28.607Z,99.90
2019-03-05T11:25:57.655Z,99.90
2019-03-05T11:28:26.791Z,99.90
2019-03-05T11:30:55.817Z,99.90
2019-03-05T11:33:24.857Z,99.90
2019-03-05T11:35:53.988Z,99.90
2019-03-05T11:38:23.022Z,99.90
2019-03-05T11:40:52.019Z,99.90
2019-03-05T11:43:20.983Z,99.90
2019-03-05T11:45:50.091Z,99.90
2019-03-05T11:48:19.149Z,99.90
2019-03-05T11:50:48.197Z,99.90
2019-03-05T11:53:17.479Z,99.90
2019-03-05T11:55:46.515Z,99.90
2019-03-05T11:58:15.627Z,99.90
2019-03-05T12:00:52.398Z,99.50
2019-03-05T12:03:21.356Z,99.20
2019-03-05T12:05:50.477Z,98.90
2019-03-05T12:08:19.439Z,99.00
2019-03-05T12:10:48.480Z,98.70
2019-03-05T12:13:17.527Z,99.00
2019-03-05T12:15:46.566Z,99.30
2019-03-05T12:18:15.538Z,98.50
2019-03-05T12:20:44.584Z,98.80
2019-03-05T12:23:13.628Z,99.20
2019-03-05T12:25:42.671Z,98.40
2019-03-05T12:28:11.681Z,98.80
2019-03-05T12:30:40.799Z,99.30
2019-03-05T12:33:09.895Z,99.20
2019-03-05T12:35:38.887Z,98.80
2019-03-05T12:38:07.922Z,98.70
2019-03-05T12:40:36.937Z,98.50
2019-03-05T12:43:06.081Z,97.90
2019-03-05T12:45:35.266Z,98.00
2019-03-05T12:48:05.073Z,97.80
2019-03-05T12:50:36.016Z,97.60
2019-03-05T12:53:05.410Z,97.30
2019-03-05T12:55:34.475Z,97.40
2019-03-05T12:58:03.538Z,98.00
2019-03-05T13:00:36.238Z,97.80
2019-03-05T13:03:05.450Z,97.50
2019-03-05T13:05:34.436Z,97.40
2019-03-05T13:08:03.459Z,97.20
2019-03-05T13:10:36.032Z,97.40
2019-03-05T13:13:05.499Z,96.90
2019-03-05T13:15:39.284Z,97.20
2019-03-05T13:18:08.412Z,97.30
2019-03-05T13:20:37.414Z,96.90
2019-03-05T13:23:09.592Z,96.60
2019-03-05T13:25:38.248Z,96.30
2019-03-05T13:28:07.703Z,97.00
2019-03-05T13:30:36.851Z,96.40
2019-03-05T13:33:05.892Z,95.90
2019-03-05T13:35:34.865Z,96.20
2019-03-05T13:38:09.537Z,96.00
2019-03-05T13:40:40.507Z,96.30
2019-03-05T13:43:09.487Z,96.00
2019-03-05T13:45:42.803Z,95.30
2019-03-05T13:48:33.457Z,95.90
2019-03-05T13:51:19.609Z,95.50
2019-03-05T13:54:05.699Z,94.50
2019-03-05T13:56:37.852Z,94.50
2019-03-05T13:59:36.570Z,95.00
2019-03-05T14:02:07.178Z,94.30
2019-03-05T14:04:42.186Z,94.80
2019-03-05T14:07:22.758Z,94.00
2019-03-05T14:09:52.479Z,93.80
2019-03-05T14:12:21.462Z,94.50
2019-03-05T14:14:50.434Z,93.80
2019-03-05T14:17:21.082Z,93.70
2019-03-05T14:19:50.347Z,93.80
2019-03-05T14:22:19.493Z,93.80
2019-03-05T14:24:48.538Z,93.40
2019-03-05T14:27:17.810Z,93.00
2019-03-05T14:29:46.765Z,91.60
2019-03-05T14:32:15.862Z,90.70
2019-03-05T14:34:56.942Z,90.40
2019-03-05T14:37:26.006Z,89.70
2019-03-05T14:39:55.053Z,85.50
2019-03-05T14:42:24.134Z,84.10
2019-03-05T14:44:53.210Z,85.00
2019-03-05T14:47:22.438Z,85.60
2019-03-05T14:49:51.437Z,85.20
2019-03-05T14:52:20.510Z,84.50
2019-03-05T14:54:49.678Z,84.50
2019-03-05T14:57:18.668Z,86.60
2019-03-05T14:59:47.669Z,86.50
2019-03-05T15:02:16.706Z,85.60
2019-03-05T15:04:45.718Z,86.70
2019-03-05T15:07:14.766Z,87.30
2019-03-05T15:09:43.803Z,87.80
2019-03-05T15:12:12.773Z,87.50
2019-03-05T15:14:41.847Z,87.00
2019-03-05T15:17:10.876Z,86.20
2019-03-05T15:19:39.853Z,84.70
2019-03-05T15:22:08.932Z,85.20
2019-03-05T15:24:37.882Z,84.30
2019-03-05T15:27:06.877Z,84.30
2019-03-05T15:29:35.906Z,84.50
2019-03-05T15:32:05.043Z,84.00
2019-03-05T15:34:33.986Z,85.30
2019-03-05T15:37:03.007Z,84.80
2019-03-05T15:39:32.015Z,84.60
2019-03-05T15:42:01.015Z,84.60
2019-03-05T15:44:30.010Z,85.00
2019-03-05T15:46:59.080Z,85.10
2019-03-05T15:49:28.113Z,85.60
2019-03-05T15:51:57.133Z,85.70
2019-03-05T15:54:26.104Z,86.10
2019-03-05T15:56:56.327Z,86.80
2019-03-05T15:59:25.392Z,87.20
2019-03-05T16:01:54.455Z,87.60
2019-03-05T16:04:23.502Z,87.50
2019-03-05T16:06:52.544Z,88.60
2019-03-05T16:09:21.518Z,88.10
2019-03-05T16:11:50.514Z,89.30
2019-03-05T16:14:19.473Z,89.60
2019-03-05T16:16:51.769Z,90.00
2019-03-05T16:19:19.185Z,90.10
2019-03-05T16:21:48.175Z,90.30
2019-03-05T16:24:17.151Z,90.30
2019-03-05T16:26:46.134Z,90.80
2019-03-05T16:29:16.263Z,90.90
2019-03-05T16:31:50.104Z,90.90
2019-03-05T16:34:40.007Z,90.80
2019-03-05T16:37:10.626Z,90.80
2019-03-05T16:39:41.240Z,91.10
2019-03-05T16:42:17.831Z,91.20
2019-03-05T16:44:48.432Z,91.00
2019-03-05T16:47:24.795Z,91.30
2019-03-05T16:50:10.395Z,91.30
2019-03-05T16:52:46.890Z,91.70
2019-03-05T16:55:17.640Z,91.30
2019-03-05T16:57:50.960Z,92.10
2019-03-05T17:00:24.662Z,91.50
2019-03-05T17:02:55.278Z,92.10
2019-03-05T17:05:29.494Z,91.60
2019-03-05T17:08:15.142Z,91.60
2019-03-05T17:11:02.095Z,91.80
2019-03-05T17:13:31.131Z,91.40
2019-03-05T17:16:00.103Z,91.50
2019-03-05T17:18:29.254Z,91.60
2019-03-05T17:20:58.281Z,91.70
2019-03-05T17:23:27.331Z,92.10
2019-03-05T17:25:56.317Z,91.60
2019-03-05T17:28:25.301Z,91.60
2019-03-05T17:30:54.261Z,92.20
2019-03-05T17:33:23.259Z,91.70
2019-03-05T17:35:52.366Z,92.00
2019-03-05T17:38:21.358Z,91.60
2019-03-05T17:40:50.311Z,92.00
2019-03-05T17:43:19.287Z,91.80
2019-03-05T17:45:48.276Z,92.40
2019-03-05T17:48:17.262Z,92.50
2019-03-05T17:50:46.224Z,92.30
2019-03-05T17:53:15.203Z,92.60
2019-03-05T17:55:44.407Z,92.40
2019-03-05T17:58:13.415Z,92.30
2019-03-05T18:00:44.029Z,93.00
2019-03-05T18:03:13.003Z,92.20
2019-03-05T18:05:42.003Z,92.30
2019-03-05T18:08:11.188Z,92.00
2019-03-05T18:10:40.227Z,91.90
2019-03-05T18:13:09.376Z,91.50
2019-03-05T18:15:38.390Z,91.40
2019-03-05T18:18:07.383Z,91.40
2019-03-05T18:20:36.356Z,91.90
2019-03-05T18:23:05.337Z,91.70
2019-03-05T18:25:34.412Z,91.60
2019-03-05T18:28:03.428Z,91.40
2019-03-05T18:30:32.779Z,92.20
2019-03-05T18:33:01.734Z,92.60
2019-03-05T18:35:30.883Z,92.90
2019-03-05T18:37:59.995Z,92.90
2019-03-05T18:40:29.116Z,93.30
2019-03-05T18:42:58.099Z,93.70
2019-03-05T18:45:34.707Z,94.10
2019-03-05T18:48:03.802Z,94.30
2019-03-05T18:50:32.929Z,94.40
2019-03-05T18:53:03.031Z,94.60
2019-03-05T18:55:32.356Z,94.40
2019-03-05T18:58:01.470Z,94.80
2019-03-05T19:00:34.623Z,94.80
2019-03-05T19:03:08.475Z,95.10
2019-03-05T19:05:38.019Z,94.90
2019-03-05T19:08:07.067Z,94.90
2019-03-05T19:10:36.114Z,95.00
2019-03-05T19:13:05.215Z,95.00
2019-03-05T19:15:34.322Z,95.20
2019-03-05T19:18:03.727Z,95.40
2019-03-05T19:20:33.067Z,95.60
2019-03-05T19:23:02.102Z,95.70
2019-03-05T19:25:39.983Z,96.10
2019-03-05T19:28:11.351Z,96.10
2019-03-05T19:30:48.120Z,96.20
2019-03-05T19:33:17.137Z,96.20
2019-03-05T19:35:46.147Z,96.30
2019-03-05T19:38:15.184Z,96.20
2019-03-05T19:40:46.382Z,96.10
2019-03-05T19:43:15.503Z,96.40
2019-03-05T19:45:44.480Z,96.30
2019-03-05T19:48:13.464Z,96.40
2019-03-05T19:50:42.807Z,96.10
2019-03-05T19:53:11.905Z,96.40
2019-03-05T19:55:40.910Z,96.40
2019-03-05T19:58:16.007Z,96.90
2019-03-05T20:00:58.382Z,97.00
2019-03-05T20:03:27.570Z,97.00
2019-03-05T20:05:56.622Z,96.90
2019-03-05T20:08:25.594Z,97.00
2019-03-05T20:10:54.923Z,97.00
2019-03-05T20:13:23.986Z,97.10
2019-03-05T20:15:53.106Z,97.40
2019-03-05T20:18:22.126Z,97.30
2019-03-05T20:20:51.177Z,96.80
2019-03-05T20:23:20.211Z,96.80
2019-03-05T20:25:49.216Z,97.00
2019-03-05T20:28:18.269Z,97.00
2019-03-05T20:30:47.264Z,96.70
2019-03-05T20:33:16.242Z,96.60
2019-03-05T20:35:45.247Z,96.50
2019-03-05T20:38:14.233Z,96.80
2019-03-05T20:40:43.285Z,96.70
2019-03-05T20:43:12.334Z,96.50
2019-03-05T20:45:44.252Z,96.50
2019-03-05T20:48:13.366Z,96.20
2019-03-05T20:50:42.350Z,95.70
2019-03-05T20:53:11.323Z,95.90
2019-03-05T20:55:40.394Z,96.00
2019-03-05T20:58:09.358Z,96.00
2019-03-05T21:00:39.595Z,95.50
2019-03-05T21:03:12.449Z,95.80
2019-03-05T21:05:46.563Z,95.70
2019-03-05T21:08:15.561Z,95.50
2019-03-05T21:10:44.629Z,96.30
2019-03-05T21:13:13.643Z,95.60
2019-03-05T21:15:42.641Z,95.50
2019-03-05T21:18:19.326Z,95.40
2019-03-05T21:20:47.868Z,95.40
2019-03-05T21:23:17.121Z,95.40
2019-03-05T21:25:46.098Z,95.30
2019-03-05T21:28:15.072Z,95.50
2019-03-05T21:30:44.067Z,95.60
2019-03-05T21:33:13.022Z,95.50
2019-03-05T21:35:42.095Z,95.60
2019-03-05T21:38:11.088Z,95.20
2019-03-05T21:40:40.111Z,95.50
2019-03-05T21:43:09.236Z,96.10
2019-03-05T21:45:44.142Z,96.70
2019-03-05T21:48:13.098Z,96.50
2019-03-05T21:50:42.086Z,96.40
2019-03-05T21:53:11.187Z,96.90
2019-03-05T21:55:40.162Z,96.90
2019-03-05T21:58:09.644Z,97.30
2019-03-05T22:00:40.563Z,97.40
2019-03-05T22:03:09.696Z,97.60
2019-03-05T22:05:38.682Z,97.40
2019-03-05T22:08:07.654Z,97.30
2019-03-05T22:10:36.914Z,97.40
2019-03-05T22:13:05.987Z,97.50
2019-03-05T22:15:36.102Z,97.30
2019-03-05T22:18:05.282Z,97.50
2019-03-05T22:20:34.310Z,97.40
2019-03-05T22:23:03.371Z,97.60
2019-03-05T22:25:32.406Z,97.70
2019-03-05T22:28:01.392Z,97.70
2019-03-05T22:30:35.017Z,97.70
2019-03-05T22:33:04.626Z,97.50
2019-03-05T22:35:33.646Z,97.80
2019-03-05T22:38:02.692Z,98.00
2019-03-05T22:40:31.735Z,97.80
2019-03-05T22:43:00.737Z,97.20
2019-03-05T22:45:33.772Z,97.40
2019-03-05T22:48:02.808Z,97.10
2019-03-05T22:50:31.766Z,97.30
2019-03-05T22:53:00.745Z,97.30
2019-03-05T22:55:29.794Z,97.40
2019-03-05T22:57:59.159Z,97.60
2019-03-05T23:01:00.658Z,97.40
2019-03-05T23:03:31.086Z,97.50
2019-03-05T23:06:02.759Z,97.60
2019-03-05T23:08:31.795Z,97.50
2019-03-05T23:11:01.212Z,97.60
2019-03-05T23:13:30.966Z,97.40
2019-03-05T23:16:00.342Z,97.50
2019-03-05T23:18:29.403Z,97.90
2019-03-05T23:20:58.455Z,97.50
2019-03-05T23:23:27.486Z,97.60
2019-03-05T23:25:56.524Z,97.70
2019-03-05T23:28:25.844Z,97.60
2019-03-05T23:30:54.823Z,97.30
2019-03-05T23:33:24.730Z,97.30
2019-03-05T23:35:53.699Z,97.90
2019-03-05T23:38:22.678Z,97.70
2019-03-05T23:40:51.718Z,97.90
2019-03-05T23:43:20.694Z,97.90
2019-03-05T23:45:49.658Z,98.00
2019-03-05T23:48:18.733Z,97.90
2019-03-05T23:50:47.708Z,97.90
2019-03-05T23:53:16.764Z,97.60
2019-03-05T23:55:45.794Z,97.30
2019-03-05T23:58:15.143Z,97.40
